createdAt,value
2017-09-05T00:00:03.488Z,1009.1
2017-09-05T00:01:04.970Z,1009.1
2017-09-05T00:02:06.352Z,1009.1
2017-09-05T00:03:07.762Z,1009.1
2017-09-05T00:04:09.128Z,1009.2
2017-09-05T00:05:10.502Z,1009.2
2017-09-05T00:06:11.955Z,1009.2
2017-09-05T00:07:13.337Z,1009.2
2017-09-05T00:08:14.752Z,1009.2
2017-09-05T00:09:16.114Z,1009.2
2017-09-05T00:10:17.500Z,1009.1
2017-09-05T00:11:18.870Z,1009.1
2017-09-05T00:12:20.259Z,1009.2
2017-09-05T00:14:02.706Z,1009.2
2017-09-05T00:15:04.080Z,1009.2
2017-09-05T00:16:05.457Z,1009.1
2017-09-05T00:17:06.832Z,1009.1
2017-09-05T00:18:08.208Z,1009.2
2017-09-05T00:19:09.582Z,1009.2
2017-09-05T00:20:10.985Z,1009.2
2017-09-05T00:21:12.347Z,1009.2
2017-09-05T00:22:13.719Z,1009.2
2017-09-05T00:23:15.089Z,1009.3
2017-09-05T00:24:16.463Z,1009.2
2017-09-05T00:25:17.845Z,1009.2
2017-09-05T00:26:19.221Z,1009.2
2017-09-05T00:27:20.597Z,1009.2
2017-09-05T00:28:21.965Z,1009.2
2017-09-05T00:30:04.322Z,1009.2
2017-09-05T00:31:05.693Z,1009.2
2017-09-05T00:32:07.067Z,1009.2
2017-09-05T00:33:08.509Z,1009.3
2017-09-05T00:34:09.878Z,1009.3
2017-09-05T00:35:11.255Z,1009.3
2017-09-05T00:36:12.630Z,1009.3
2017-09-05T00:37:14.008Z,1009.4
2017-09-05T00:38:15.382Z,1009.3
2017-09-05T00:39:16.753Z,1009.3
2017-09-05T00:40:18.126Z,1009.4
2017-09-05T00:41:19.499Z,1009.3
2017-09-05T00:42:20.875Z,1009.3
2017-09-05T00:43:22.249Z,1009.3
2017-09-05T00:44:23.623Z,1009.3
2017-09-05T00:46:05.997Z,1009.3
2017-09-05T00:47:07.365Z,1009.3
2017-09-05T00:48:08.759Z,1009.3
2017-09-05T00:49:10.131Z,1009.3
2017-09-05T00:50:11.505Z,1009.4
2017-09-05T00:51:12.916Z,1009.4
2017-09-05T00:52:14.303Z,1009.4
2017-09-05T00:53:15.672Z,1009.4
2017-09-05T00:54:17.062Z,1009.4
2017-09-05T00:55:18.436Z,1009.3
2017-09-05T00:56:19.808Z,1009.4
2017-09-05T00:57:21.179Z,1009.3
2017-09-05T00:58:22.551Z,1009.3
2017-09-05T00:59:23.924Z,1009.4
2017-09-05T01:00:25.308Z,1009.3
2017-09-05T01:01:26.684Z,1009.3
2017-09-05T01:02:28.123Z,1009.4
2017-09-05T01:03:29.504Z,1009.3
2017-09-05T01:04:30.905Z,1009.4
2017-09-05T01:05:32.326Z,1009.4
2017-09-05T01:06:33.786Z,1009.3
2017-09-05T01:07:35.163Z,1009.3
2017-09-05T01:08:36.543Z,1009.3
2017-09-05T01:09:37.936Z,1009.3
2017-09-05T01:10:39.640Z,1009.3
2017-09-05T01:11:41.237Z,1009.3
2017-09-05T01:12:42.970Z,1009.3
2017-09-05T01:13:44.680Z,1009.3
2017-09-05T01:14:46.329Z,1009.3
2017-09-05T01:15:48.134Z,1009.3
2017-09-05T01:16:49.525Z,1009.3
2017-09-05T01:18:32.060Z,1009.3
2017-09-05T01:19:33.774Z,1009.3
2017-09-05T01:20:35.152Z,1009.2
2017-09-05T01:21:36.526Z,1009.3
2017-09-05T01:22:37.902Z,1009.3
2017-09-05T01:23:39.275Z,1009.2
2017-09-05T01:24:40.662Z,1009.2
2017-09-05T01:25:42.093Z,1009.2
2017-09-05T01:26:43.466Z,1009.2
2017-09-05T01:27:44.893Z,1009.3
2017-09-05T01:28:46.302Z,1009.3
2017-09-05T01:29:47.723Z,1009.3
2017-09-05T01:30:49.101Z,1009.3
2017-09-05T01:31:50.472Z,1009.2
2017-09-05T01:32:51.843Z,1009.3
2017-09-05T01:34:34.207Z,1009.3
2017-09-05T01:35:35.576Z,1009.2
2017-09-05T01:36:36.958Z,1009.2
2017-09-05T01:37:38.374Z,1009.2
2017-09-05T01:38:39.744Z,1009.2
2017-09-05T01:39:41.120Z,1009.2
2017-09-05T01:40:42.489Z,1009.2
2017-09-05T01:41:43.877Z,1009.2
2017-09-05T01:42:45.267Z,1009.2
2017-09-05T01:43:46.689Z,1009.2
2017-09-05T01:44:48.115Z,1009.2
2017-09-05T01:45:49.491Z,1009.2
2017-09-05T01:46:50.867Z,1009.2
2017-09-05T01:47:52.238Z,1009.2
2017-09-05T01:48:53.630Z,1009.2
2017-09-05T01:49:55.006Z,1009.2
2017-09-05T01:51:37.434Z,1009.2
2017-09-05T01:52:38.854Z,1009.2
2017-09-05T01:53:40.195Z,1009.2
2017-09-05T01:54:41.566Z,1009.1
2017-09-05T01:55:42.944Z,1009.2
2017-09-05T01:56:44.319Z,1009.2
2017-09-05T01:57:45.724Z,1009.2
2017-09-05T01:58:47.105Z,1009.2
2017-09-05T01:59:48.489Z,1009.2
2017-09-05T02:00:49.863Z,1009.2
2017-09-05T02:01:51.236Z,1009.2
2017-09-05T02:02:52.669Z,1009.2
2017-09-05T02:03:54.057Z,1009.2
2017-09-05T02:04:55.444Z,1009.2
2017-09-05T02:05:56.808Z,1009.2
2017-09-05T02:06:58.196Z,1009.2
2017-09-05T02:07:59.565Z,1009.2
2017-09-05T02:09:00.947Z,1009.2
2017-09-05T02:10:02.329Z,1009.2
2017-09-05T02:11:03.700Z,1009.2
2017-09-05T02:12:05.072Z,1009.2
2017-09-05T02:13:06.450Z,1009.2
2017-09-05T02:14:07.866Z,1009.2
2017-09-05T02:15:09.302Z,1009.3
2017-09-05T02:16:10.674Z,1009.3
2017-09-05T02:17:12.060Z,1009.3
2017-09-05T02:18:13.452Z,1009.3
2017-09-05T02:19:14.826Z,1009.3
2017-09-05T02:20:16.202Z,1009.2
2017-09-05T02:21:17.616Z,1009.3
2017-09-05T02:22:19.081Z,1009.3
2017-09-05T02:23:20.492Z,1009.2
2017-09-05T02:24:21.906Z,1009.3
2017-09-05T02:25:23.305Z,1009.2
2017-09-05T02:26:24.683Z,1009.2
2017-09-05T02:28:07.055Z,1009.2
2017-09-05T02:29:08.427Z,1009.2
2017-09-05T02:30:09.806Z,1009.2
2017-09-05T02:31:11.186Z,1009.1
2017-09-05T02:32:12.568Z,1009.1
2017-09-05T02:33:13.947Z,1009.1
2017-09-05T02:34:15.320Z,1009.1
2017-09-05T02:35:16.709Z,1009.1
2017-09-05T02:36:18.094Z,1009.1
2017-09-05T02:37:19.469Z,1009.0
2017-09-05T02:38:20.837Z,1009.0
2017-09-05T02:39:22.284Z,1008.9
2017-09-05T02:40:23.674Z,1008.9
2017-09-05T02:41:25.106Z,1008.9
2017-09-05T02:42:26.524Z,1008.9
2017-09-05T02:43:27.928Z,1008.9
2017-09-05T02:44:29.456Z,1008.9
2017-09-05T02:45:30.998Z,1008.9
2017-09-05T02:46:32.375Z,1008.8
2017-09-05T02:47:33.746Z,1008.8
2017-09-05T02:48:35.124Z,1008.8
2017-09-05T02:49:36.501Z,1008.8
2017-09-05T02:50:37.869Z,1008.8
2017-09-05T02:51:39.239Z,1008.8
2017-09-05T02:52:40.618Z,1008.8
2017-09-05T02:53:41.998Z,1008.8
2017-09-05T02:54:43.376Z,1008.8
2017-09-05T02:55:44.749Z,1008.8
2017-09-05T02:56:46.126Z,1008.8
2017-09-05T02:57:47.500Z,1008.8
2017-09-05T02:58:48.871Z,1008.8
2017-09-05T03:00:31.315Z,1008.8
2017-09-05T03:01:32.659Z,1008.8
2017-09-05T03:02:34.029Z,1008.8
2017-09-05T03:03:35.443Z,1008.7
2017-09-05T03:04:36.788Z,1008.7
2017-09-05T03:05:38.166Z,1008.7
2017-09-05T03:06:39.543Z,1008.7
2017-09-05T03:07:40.912Z,1008.7
2017-09-05T03:08:42.286Z,1008.7
2017-09-05T03:09:43.656Z,1008.6
2017-09-05T03:10:45.031Z,1008.7
2017-09-05T03:11:46.410Z,1008.7
2017-09-05T03:12:47.777Z,1008.7
2017-09-05T03:13:49.152Z,1008.7
2017-09-05T03:14:50.526Z,1008.6
2017-09-05T03:15:51.897Z,1008.6
2017-09-05T03:16:53.273Z,1008.6
2017-09-05T03:17:54.653Z,1008.7
2017-09-05T03:18:56.025Z,1008.6
2017-09-05T03:19:57.454Z,1008.6
2017-09-05T03:20:58.927Z,1008.6
2017-09-05T03:22:00.463Z,1008.7
2017-09-05T03:23:02.092Z,1008.6
2017-09-05T03:24:03.743Z,1008.7
2017-09-05T03:25:05.357Z,1008.7
2017-09-05T03:26:07.065Z,1008.7
2017-09-05T03:27:08.492Z,1008.7
2017-09-05T03:28:09.861Z,1008.7
2017-09-05T03:29:11.246Z,1008.7
2017-09-05T03:30:12.627Z,1008.7
2017-09-05T03:31:14.000Z,1008.7
2017-09-05T03:32:15.373Z,1008.7
2017-09-05T03:33:16.770Z,1008.8
2017-09-05T03:34:18.141Z,1008.7
2017-09-05T03:35:19.523Z,1008.8
2017-09-05T03:36:20.896Z,1008.8
2017-09-05T03:37:22.267Z,1008.8
2017-09-05T03:38:23.639Z,1008.7
2017-09-05T03:39:25.022Z,1008.7
2017-09-05T03:40:26.385Z,1008.7
2017-09-05T03:41:27.763Z,1008.6
2017-09-05T03:42:29.167Z,1008.7
2017-09-05T03:43:30.515Z,1008.6
2017-09-05T03:44:31.879Z,1008.6
2017-09-05T03:45:33.430Z,1008.7
2017-09-05T03:46:35.063Z,1008.7
2017-09-05T03:47:36.712Z,1008.7
2017-09-05T03:49:19.100Z,1008.7
2017-09-05T03:50:20.477Z,1008.6
2017-09-05T03:51:21.919Z,1008.7
2017-09-05T03:52:23.288Z,1008.7
2017-09-05T03:53:24.663Z,1008.6
2017-09-05T03:54:26.164Z,1008.6
2017-09-05T03:55:27.548Z,1008.6
2017-09-05T03:56:28.924Z,1008.7
2017-09-05T03:57:30.295Z,1008.6
2017-09-05T03:58:31.680Z,1008.6
2017-09-05T03:59:33.053Z,1008.6
2017-09-05T04:00:34.427Z,1008.6
2017-09-05T04:01:35.800Z,1008.7
2017-09-05T04:02:37.173Z,1008.6
2017-09-05T04:03:38.551Z,1008.6
2017-09-05T04:04:39.923Z,1008.7
2017-09-05T04:05:41.321Z,1008.6
2017-09-05T04:06:42.692Z,1008.7
2017-09-05T04:07:44.070Z,1008.7
2017-09-05T04:08:45.438Z,1008.7
2017-09-05T04:09:46.813Z,1008.7
2017-09-05T04:10:48.187Z,1008.8
2017-09-05T04:11:49.562Z,1008.8
2017-09-05T04:12:50.935Z,1008.8
2017-09-05T04:13:52.328Z,1008.8
2017-09-05T04:14:53.708Z,1008.8
2017-09-05T04:15:55.083Z,1008.8
2017-09-05T04:16:56.458Z,1008.8
2017-09-05T04:17:57.830Z,1008.8
2017-09-05T04:19:40.211Z,1008.8
2017-09-05T04:20:41.933Z,1008.8
2017-09-05T04:21:43.314Z,1008.8
2017-09-05T04:22:44.694Z,1008.8
2017-09-05T04:23:46.060Z,1008.8
2017-09-05T04:24:47.432Z,1008.8
2017-09-05T04:25:48.803Z,1008.9
2017-09-05T04:26:50.189Z,1008.8
2017-09-05T04:27:51.559Z,1008.8
2017-09-05T04:28:52.931Z,1008.8
2017-09-05T04:29:54.309Z,1008.8
2017-09-05T04:30:55.682Z,1008.8
2017-09-05T04:31:57.060Z,1008.8
2017-09-05T04:32:58.435Z,1008.9
2017-09-05T04:33:59.810Z,1008.8
2017-09-05T04:35:42.182Z,1008.8
2017-09-05T04:36:43.556Z,1008.8
2017-09-05T04:37:44.931Z,1008.8
2017-09-05T04:38:46.356Z,1008.8
2017-09-05T04:39:47.688Z,1008.8
2017-09-05T04:40:49.063Z,1008.8
2017-09-05T04:41:50.510Z,1008.8
2017-09-05T04:42:51.904Z,1008.8
2017-09-05T04:43:53.273Z,1008.8
2017-09-05T04:44:54.642Z,1008.8
2017-09-05T04:45:56.024Z,1008.8
2017-09-05T04:46:57.398Z,1008.9
2017-09-05T04:47:58.775Z,1008.8
2017-09-05T04:49:00.149Z,1008.8
2017-09-05T04:50:01.529Z,1008.8
2017-09-05T04:51:02.901Z,1008.8
2017-09-05T04:52:04.279Z,1008.8
2017-09-05T04:53:05.655Z,1008.8
2017-09-05T04:54:07.027Z,1008.8
2017-09-05T04:55:08.416Z,1008.8
2017-09-05T04:56:09.792Z,1008.8
2017-09-05T04:57:11.325Z,1008.8
2017-09-05T04:58:12.708Z,1008.8
2017-09-05T04:59:14.108Z,1008.9
2017-09-05T05:00:15.488Z,1008.8
2017-09-05T05:01:16.927Z,1008.8
2017-09-05T05:02:18.385Z,1008.9
2017-09-05T05:03:19.800Z,1008.9
2017-09-05T05:04:21.179Z,1008.9
2017-09-05T05:05:22.576Z,1008.9
2017-09-05T05:06:23.946Z,1008.9
2017-09-05T05:08:06.324Z,1008.9
2017-09-05T05:09:07.696Z,1008.9
2017-09-05T05:10:09.083Z,1008.9
2017-09-05T05:11:10.458Z,1008.9
2017-09-05T05:12:11.843Z,1008.9
2017-09-05T05:13:13.234Z,1008.9
2017-09-05T05:14:14.614Z,1008.9
2017-09-05T05:15:15.990Z,1008.9
2017-09-05T05:16:17.407Z,1008.9
2017-09-05T05:17:18.790Z,1008.9
2017-09-05T05:18:20.173Z,1008.9
2017-09-05T05:19:21.557Z,1008.9
2017-09-05T05:20:22.939Z,1008.9
2017-09-05T05:21:24.330Z,1008.9
2017-09-05T05:22:25.705Z,1009.0
2017-09-05T05:24:08.061Z,1008.9
2017-09-05T05:25:09.448Z,1009.0
2017-09-05T05:26:10.875Z,1009.0
2017-09-05T05:27:12.256Z,1009.0
2017-09-05T05:28:13.837Z,1009.0
2017-09-05T05:29:15.231Z,1009.0
2017-09-05T05:30:16.615Z,1009.0
2017-09-05T05:31:18.001Z,1009.0
2017-09-05T05:32:19.380Z,1009.0
2017-09-05T05:33:20.751Z,1009.0
2017-09-05T05:34:22.136Z,1009.0
2017-09-05T05:35:23.517Z,1009.0
2017-09-05T05:36:24.894Z,1009.0
2017-09-05T05:37:26.286Z,1009.1
2017-09-05T05:38:27.663Z,1009.0
2017-09-05T05:39:29.038Z,1009.0
2017-09-05T05:40:30.443Z,1009.0
2017-09-05T05:41:31.824Z,1008.9
2017-09-05T05:42:33.205Z,1009.0
2017-09-05T05:43:34.583Z,1009.0
2017-09-05T05:44:35.966Z,1008.9
2017-09-05T05:45:37.338Z,1008.9
2017-09-05T05:46:38.778Z,1008.9
2017-09-05T05:47:40.171Z,1008.9
2017-09-05T05:48:41.591Z,1008.9
2017-09-05T05:49:43.047Z,1008.9
2017-09-05T05:50:44.474Z,1008.9
2017-09-05T05:51:45.848Z,1008.9
2017-09-05T05:52:47.227Z,1008.9
2017-09-05T05:53:48.612Z,1009.0
2017-09-05T05:54:50.075Z,1008.9
2017-09-05T05:56:32.451Z,1008.9
2017-09-05T05:57:33.859Z,1008.9
2017-09-05T05:58:35.237Z,1009.0
2017-09-05T05:59:36.893Z,1009.0
2017-09-05T06:00:38.299Z,1009.0
2017-09-05T06:01:39.684Z,1009.0
2017-09-05T06:02:41.051Z,1009.0
2017-09-05T06:03:42.448Z,1009.0
2017-09-05T06:04:43.857Z,1009.0
2017-09-05T06:05:45.233Z,1009.0
2017-09-05T06:06:46.612Z,1009.0
2017-09-05T06:07:47.997Z,1009.0
2017-09-05T06:08:49.376Z,1009.0
2017-09-05T06:09:50.772Z,1009.0
2017-09-05T06:10:52.165Z,1009.1
2017-09-05T06:12:35.710Z,1009.1
2017-09-05T06:13:37.049Z,1009.1
2017-09-05T06:14:38.449Z,1009.1
2017-09-05T06:15:39.849Z,1009.2
2017-09-05T06:16:41.229Z,1009.1
2017-09-05T06:17:42.608Z,1009.1
2017-09-05T06:18:43.999Z,1009.2
2017-09-05T06:19:45.384Z,1009.1
2017-09-05T06:20:46.762Z,1009.1
2017-09-05T06:21:48.140Z,1009.1
2017-09-05T06:22:49.521Z,1009.0
2017-09-05T06:23:50.904Z,1009.0
2017-09-05T06:24:52.284Z,1009.0
2017-09-05T06:25:53.675Z,1009.0
2017-09-05T06:26:55.128Z,1009.0
2017-09-05T06:27:56.519Z,1009.0
2017-09-05T06:28:57.930Z,1009.1
2017-09-05T06:29:59.322Z,1009.1
2017-09-05T06:31:00.702Z,1009.2
2017-09-05T06:32:02.100Z,1009.2
2017-09-05T06:33:03.488Z,1009.2
2017-09-05T06:34:04.871Z,1009.1
2017-09-05T06:35:06.254Z,1009.0
2017-09-05T06:36:07.636Z,1009.1
2017-09-05T06:37:09.022Z,1009.2
2017-09-05T06:38:10.398Z,1009.2
2017-09-05T06:39:11.867Z,1009.1
2017-09-05T06:40:13.289Z,1009.0
2017-09-05T06:41:14.687Z,1009.0
2017-09-05T06:42:16.144Z,1009.0
2017-09-05T06:43:17.529Z,1009.0
2017-09-05T06:44:59.897Z,1009.0
2017-09-05T06:46:01.272Z,1009.0
2017-09-05T06:47:02.649Z,1009.0
2017-09-05T06:48:04.031Z,1009.1
2017-09-05T06:49:05.420Z,1009.2
2017-09-05T06:50:06.803Z,1009.3
2017-09-05T06:51:08.191Z,1009.3
2017-09-05T06:52:09.566Z,1009.2
2017-09-05T06:53:10.990Z,1009.1
2017-09-05T06:54:12.452Z,1009.1
2017-09-05T06:55:13.914Z,1009.1
2017-09-05T06:56:15.313Z,1009.1
2017-09-05T06:57:16.723Z,1009.1
2017-09-05T06:58:18.144Z,1009.1
2017-09-05T06:59:19.560Z,1009.0
2017-09-05T07:01:00.929Z,1009.0
2017-09-05T07:02:02.373Z,1009.0
2017-09-05T07:03:03.786Z,1009.1
2017-09-05T07:04:05.167Z,1009.1
2017-09-05T07:05:06.551Z,1009.1
2017-09-05T07:06:07.931Z,1009.1
2017-09-05T07:07:09.319Z,1009.1
2017-09-05T07:08:10.701Z,1009.2
2017-09-05T07:09:53.077Z,1009.3
2017-09-05T07:10:54.460Z,1009.2
2017-09-05T07:11:55.844Z,1009.2
2017-09-05T07:12:57.230Z,1009.2
2017-09-05T07:13:58.613Z,1009.2
2017-09-05T07:15:00.006Z,1009.1
2017-09-05T07:16:01.390Z,1009.1
2017-09-05T07:17:02.774Z,1009.1
2017-09-05T07:18:04.155Z,1009.0
2017-09-05T07:19:05.568Z,1009.0
2017-09-05T07:20:06.948Z,1009.0
2017-09-05T07:21:08.337Z,1009.0
2017-09-05T07:22:09.712Z,1009.0
2017-09-05T07:23:11.097Z,1009.0
2017-09-05T07:24:12.474Z,1009.0
2017-09-05T07:25:13.883Z,1009.0
2017-09-05T07:26:15.266Z,1009.0
2017-09-05T07:27:16.651Z,1009.0
2017-09-05T07:28:18.035Z,1009.0
2017-09-05T07:29:19.479Z,1009.0
2017-09-05T07:30:20.869Z,1009.0
2017-09-05T07:31:22.284Z,1009.0
2017-09-05T07:32:23.703Z,1009.0
2017-09-05T07:33:25.083Z,1009.0
2017-09-05T07:34:26.468Z,1009.0
2017-09-05T07:35:27.849Z,1009.0
2017-09-05T07:36:29.264Z,1009.0
2017-09-05T07:37:30.682Z,1009.1
2017-09-05T07:38:32.082Z,1009.2
2017-09-05T07:39:33.520Z,1009.1
2017-09-05T07:40:34.941Z,1009.1
2017-09-05T07:42:17.317Z,1009.1
2017-09-05T07:43:18.700Z,1009.1
2017-09-05T07:44:20.081Z,1009.1
2017-09-05T07:45:21.468Z,1009.0
2017-09-05T07:46:22.853Z,1009.0
2017-09-05T07:47:24.249Z,1009.0
2017-09-05T07:48:25.703Z,1009.1
2017-09-05T07:49:27.099Z,1009.1
2017-09-05T07:50:28.481Z,1009.1
2017-09-05T07:51:29.864Z,1009.0
2017-09-05T07:52:31.246Z,1009.1
2017-09-05T07:53:32.630Z,1009.1
2017-09-05T07:54:34.025Z,1009.1
2017-09-05T07:55:35.419Z,1009.1
2017-09-05T07:56:36.805Z,1009.1
2017-09-05T07:57:38.189Z,1009.1
2017-09-05T07:58:39.571Z,1009.1
2017-09-05T07:59:40.959Z,1009.1
2017-09-05T08:00:42.341Z,1009.1
2017-09-05T08:01:43.743Z,1009.1
2017-09-05T08:02:45.118Z,1009.1
2017-09-05T08:03:46.506Z,1009.1
2017-09-05T08:04:47.890Z,1009.1
2017-09-05T08:05:49.338Z,1009.1
2017-09-05T08:06:50.721Z,1009.1
2017-09-05T08:07:52.179Z,1009.1
2017-09-05T08:08:53.578Z,1009.1
2017-09-05T08:09:55.040Z,1009.1
2017-09-05T08:10:56.498Z,1009.1
2017-09-05T08:11:57.878Z,1009.2
2017-09-05T08:12:59.260Z,1009.2
2017-09-05T08:14:00.683Z,1009.2
2017-09-05T08:15:02.064Z,1009.2
2017-09-05T08:16:03.452Z,1009.2
2017-09-05T08:17:04.847Z,1009.1
2017-09-05T08:18:06.254Z,1009.1
2017-09-05T08:19:07.628Z,1009.1
2017-09-05T08:20:09.029Z,1009.1
2017-09-05T08:21:10.418Z,1009.1
2017-09-05T08:22:11.796Z,1009.1
2017-09-05T08:23:13.181Z,1009.1
2017-09-05T08:24:14.567Z,1009.1
2017-09-05T08:25:15.959Z,1009.1
2017-09-05T08:26:17.340Z,1009.1
2017-09-05T08:27:18.731Z,1009.1
2017-09-05T08:28:20.109Z,1009.2
2017-09-05T08:29:21.522Z,1009.2
2017-09-05T08:30:22.903Z,1009.2
2017-09-05T08:31:24.360Z,1009.2
2017-09-05T08:32:25.751Z,1009.2
2017-09-05T08:33:27.175Z,1009.2
2017-09-05T08:34:28.560Z,1009.2
2017-09-05T08:35:29.951Z,1009.2
2017-09-05T08:36:31.379Z,1009.2
2017-09-05T08:37:33.235Z,1009.2
2017-09-05T08:38:35.018Z,1009.2
2017-09-05T08:39:36.738Z,1009.2
2017-09-05T08:40:38.337Z,1009.2
2017-09-05T08:41:40.005Z,1009.2
2017-09-05T08:42:41.482Z,1009.2
2017-09-05T08:43:42.855Z,1009.1
2017-09-05T08:44:44.272Z,1009.2
2017-09-05T08:45:45.665Z,1009.2
2017-09-05T08:46:47.110Z,1009.2
2017-09-05T08:47:48.505Z,1009.2
2017-09-05T08:48:49.915Z,1009.2
2017-09-05T08:49:51.302Z,1009.2
2017-09-05T08:50:52.701Z,1009.2
2017-09-05T08:51:54.114Z,1009.2
2017-09-05T08:52:55.556Z,1009.0
2017-09-05T08:53:56.952Z,1009.0
2017-09-05T08:54:58.342Z,1009.3
2017-09-05T08:55:59.730Z,1009.3
2017-09-05T08:57:01.128Z,1009.4
2017-09-05T08:58:02.512Z,1009.6
2017-09-05T08:59:03.914Z,1009.3
2017-09-05T09:00:05.293Z,1009.3
2017-09-05T09:01:06.680Z,1009.3
2017-09-05T09:02:49.197Z,1009.2
2017-09-05T09:03:50.637Z,1009.2
2017-09-05T09:04:52.037Z,1009.2
2017-09-05T09:05:53.445Z,1009.2
2017-09-05T09:06:54.862Z,1009.3
2017-09-05T09:07:56.248Z,1009.5
2017-09-05T09:08:57.634Z,1010.1
2017-09-05T09:09:59.023Z,1010.1
2017-09-05T09:11:00.410Z,1009.7
2017-09-05T09:12:01.790Z,1010.0
2017-09-05T09:13:03.180Z,1010.1
2017-09-05T09:14:04.568Z,1010.2
2017-09-05T09:15:05.964Z,1009.3
2017-09-05T09:16:07.353Z,1009.9
2017-09-05T09:17:08.790Z,1009.5
2017-09-05T09:18:10.198Z,1009.7
2017-09-05T09:19:11.588Z,1009.7
2017-09-05T09:20:12.983Z,1009.7
2017-09-05T09:21:14.369Z,1009.5
2017-09-05T09:22:15.759Z,1009.4
2017-09-05T09:23:17.147Z,1009.5
2017-09-05T09:24:18.539Z,1009.5
2017-09-05T09:25:19.942Z,1009.9
2017-09-05T09:26:21.331Z,1009.6
2017-09-05T09:27:22.721Z,1009.6
2017-09-05T09:28:24.112Z,1009.6
2017-09-05T09:29:25.503Z,1009.5
2017-09-05T09:30:26.900Z,1009.3
2017-09-05T09:31:28.293Z,1009.3
2017-09-05T09:32:29.708Z,1009.2
2017-09-05T09:34:11.114Z,1009.2
2017-09-05T09:35:12.502Z,1009.3
2017-09-05T09:36:35.526Z,1009.5
2017-09-05T09:37:36.905Z,1009.3
2017-09-05T09:38:38.305Z,1009.8
2017-09-05T09:39:39.710Z,1009.9
2017-09-05T09:40:41.099Z,1009.3
2017-09-05T09:41:42.497Z,1009.5
2017-09-05T09:42:43.886Z,1009.8
2017-09-05T09:43:45.308Z,1009.6
2017-09-05T09:44:46.695Z,1009.3
2017-09-05T09:45:48.080Z,1009.2
2017-09-05T09:46:49.474Z,1009.3
2017-09-05T09:47:50.858Z,1009.2
2017-09-05T09:48:52.249Z,1009.2
2017-09-05T09:49:53.648Z,1009.2
2017-09-05T09:50:55.047Z,1009.6
2017-09-05T09:51:56.472Z,1009.5
2017-09-05T09:52:57.873Z,1009.1
2017-09-05T09:53:59.284Z,1009.3
2017-09-05T09:55:00.678Z,1009.2
2017-09-05T09:56:02.082Z,1009.2
2017-09-05T09:57:03.500Z,1009.4
2017-09-05T09:58:04.879Z,1009.4
2017-09-05T09:59:06.269Z,1009.5
2017-09-05T10:00:07.665Z,1009.5
2017-09-05T10:01:09.073Z,1009.5
2017-09-05T10:02:10.456Z,1009.5
2017-09-05T10:03:11.875Z,1009.5
2017-09-05T10:04:13.274Z,1009.2
2017-09-05T10:05:14.702Z,1009.4
2017-09-05T10:06:57.144Z,1009.3
2017-09-05T10:07:58.496Z,1009.2
2017-09-05T10:08:59.903Z,1009.1
2017-09-05T10:10:01.298Z,1009.2
2017-09-05T10:11:02.685Z,1009.4
2017-09-05T10:12:04.096Z,1009.4
2017-09-05T10:13:05.503Z,1009.4
2017-09-05T10:14:06.904Z,1009.1
2017-09-05T10:15:08.292Z,1009.2
2017-09-05T10:16:09.698Z,1009.0
2017-09-05T10:17:11.092Z,1008.9
2017-09-05T10:18:12.514Z,1009.0
2017-09-05T10:19:14.022Z,1008.7
2017-09-05T10:20:15.402Z,1008.7
2017-09-05T10:21:16.797Z,1008.7
2017-09-05T10:22:58.205Z,1009.0
2017-09-05T10:23:59.605Z,1009.0
2017-09-05T10:25:23.607Z,1008.9
2017-09-05T10:26:25.025Z,1009.1
2017-09-05T10:27:26.404Z,1009.1
2017-09-05T10:28:27.799Z,1009.0
2017-09-05T10:29:29.203Z,1009.0
2017-09-05T10:30:30.606Z,1009.1
2017-09-05T10:31:32.002Z,1008.8
2017-09-05T10:32:33.414Z,1008.7
2017-09-05T10:33:34.794Z,1008.6
2017-09-05T10:34:36.188Z,1008.6
2017-09-05T10:35:37.583Z,1008.6
2017-09-05T10:36:38.983Z,1008.6
2017-09-05T10:37:40.384Z,1008.6
2017-09-05T10:38:41.777Z,1008.5
2017-09-05T10:39:43.174Z,1008.7
2017-09-05T10:40:44.563Z,1008.6
2017-09-05T10:41:45.955Z,1008.7
2017-09-05T10:42:47.358Z,1008.9
2017-09-05T10:43:48.749Z,1008.9
2017-09-05T10:44:50.139Z,1008.6
2017-09-05T10:45:51.542Z,1008.8
2017-09-05T10:46:52.936Z,1008.8
2017-09-05T10:47:54.325Z,1008.9
2017-09-05T10:48:55.721Z,1008.7
2017-09-05T10:49:57.109Z,1008.7
2017-09-05T10:50:58.502Z,1008.7
2017-09-05T10:51:59.891Z,1008.6
2017-09-05T10:53:01.289Z,1008.5
2017-09-05T10:54:02.696Z,1008.5
2017-09-05T10:55:45.070Z,1008.5
2017-09-05T10:56:46.456Z,1008.5
2017-09-05T10:57:47.850Z,1008.5
2017-09-05T10:58:49.253Z,1008.6
2017-09-05T10:59:50.648Z,1008.5
2017-09-05T11:00:52.043Z,1008.6
2017-09-05T11:01:53.430Z,1008.7
2017-09-05T11:02:54.821Z,1008.6
2017-09-05T11:03:56.215Z,1008.7
2017-09-05T11:04:57.601Z,1008.7
2017-09-05T11:05:59.008Z,1008.6
2017-09-05T11:07:00.393Z,1008.7
2017-09-05T11:08:01.785Z,1008.6
2017-09-05T11:09:03.185Z,1008.7
2017-09-05T11:10:04.590Z,1008.7
2017-09-05T11:11:47.975Z,1008.6
2017-09-05T11:12:49.366Z,1008.6
2017-09-05T11:13:50.763Z,1008.7
2017-09-05T11:14:52.157Z,1008.8
2017-09-05T11:15:53.578Z,1008.8
2017-09-05T11:16:54.969Z,1008.7
2017-09-05T11:17:56.365Z,1008.8
2017-09-05T11:18:57.758Z,1008.7
2017-09-05T11:19:59.174Z,1008.7
2017-09-05T11:21:00.560Z,1008.5
2017-09-05T11:22:01.959Z,1008.5
2017-09-05T11:23:03.379Z,1008.6
2017-09-05T11:24:04.752Z,1008.4
2017-09-05T11:25:06.148Z,1008.4
2017-09-05T11:26:07.547Z,1008.4
2017-09-05T11:27:08.939Z,1008.4
2017-09-05T11:28:10.338Z,1008.6
2017-09-05T11:29:11.736Z,1008.6
2017-09-05T11:30:13.135Z,1008.5
2017-09-05T11:31:14.527Z,1008.5
2017-09-05T11:32:15.922Z,1008.5
2017-09-05T11:33:17.328Z,1008.5
2017-09-05T11:34:18.714Z,1008.4
2017-09-05T11:35:20.109Z,1008.4
2017-09-05T11:36:21.506Z,1008.4
2017-09-05T11:37:22.902Z,1008.5
2017-09-05T11:38:24.321Z,1008.5
2017-09-05T11:39:25.719Z,1008.5
2017-09-05T11:40:27.123Z,1008.5
2017-09-05T11:41:28.521Z,1008.5
2017-09-05T11:42:29.916Z,1008.5
2017-09-05T11:43:31.313Z,1008.5
2017-09-05T11:44:32.708Z,1008.5
2017-09-05T11:45:34.108Z,1008.5
2017-09-05T11:46:35.507Z,1008.5
2017-09-05T11:47:36.906Z,1008.5
2017-09-05T11:48:38.306Z,1008.3
2017-09-05T11:49:39.710Z,1008.2
2017-09-05T11:50:41.116Z,1008.2
2017-09-05T11:51:42.510Z,1008.2
2017-09-05T11:52:43.898Z,1008.3
2017-09-05T11:53:45.340Z,1008.3
2017-09-05T11:54:46.704Z,1008.3
2017-09-05T11:55:48.107Z,1008.4
2017-09-05T11:56:49.514Z,1008.4
2017-09-05T11:57:50.911Z,1008.6
2017-09-05T11:59:33.303Z,1008.5
2017-09-05T12:00:34.721Z,1008.5
2017-09-05T12:01:36.109Z,1008.4
2017-09-05T12:02:37.500Z,1008.4
2017-09-05T12:03:38.899Z,1008.3
2017-09-05T12:04:40.319Z,1008.3
2017-09-05T12:05:41.687Z,1008.3
2017-09-05T12:06:43.080Z,1008.3
2017-09-05T12:07:44.483Z,1008.2
2017-09-05T12:08:45.875Z,1008.3
2017-09-05T12:09:47.270Z,1008.2
2017-09-05T12:10:48.659Z,1008.2
2017-09-05T12:11:50.056Z,1008.2
2017-09-05T12:12:51.447Z,1008.3
2017-09-05T12:13:52.841Z,1008.2
2017-09-05T12:14:54.236Z,1008.2
2017-09-05T12:15:55.662Z,1008.2
2017-09-05T12:16:57.079Z,1008.2
2017-09-05T12:17:58.471Z,1008.2
2017-09-05T12:18:59.861Z,1008.2
2017-09-05T12:20:01.248Z,1008.1
2017-09-05T12:21:02.646Z,1008.1
2017-09-05T12:22:04.046Z,1008.1
2017-09-05T12:23:05.433Z,1008.0
2017-09-05T12:24:06.821Z,1008.0
2017-09-05T12:25:08.209Z,1008.0
2017-09-05T12:26:09.610Z,1008.0
2017-09-05T12:27:11.019Z,1008.0
2017-09-05T12:28:12.394Z,1008.0
2017-09-05T12:29:13.787Z,1008.2
2017-09-05T12:30:15.183Z,1008.2
2017-09-05T12:31:16.602Z,1008.4
2017-09-05T12:32:58.996Z,1008.4
2017-09-05T12:34:00.388Z,1008.2
2017-09-05T12:35:01.776Z,1008.2
2017-09-05T12:36:03.171Z,1008.2
2017-09-05T12:37:04.561Z,1008.2
2017-09-05T12:38:05.955Z,1008.2
2017-09-05T12:39:07.351Z,1008.0
2017-09-05T12:40:08.750Z,1008.0
2017-09-05T12:41:10.136Z,1008.2
2017-09-05T12:42:11.536Z,1008.0
2017-09-05T12:43:12.927Z,1008.1
2017-09-05T12:44:14.322Z,1008.1
2017-09-05T12:45:15.710Z,1008.0
2017-09-05T12:46:17.114Z,1008.0
2017-09-05T12:47:18.497Z,1007.9
2017-09-05T12:49:00.882Z,1008.0
2017-09-05T12:50:02.273Z,1008.1
2017-09-05T12:51:03.664Z,1008.1
2017-09-05T12:52:05.078Z,1008.1
2017-09-05T12:53:06.468Z,1008.1
2017-09-05T12:54:07.862Z,1008.1
2017-09-05T12:55:09.254Z,1008.1
2017-09-05T12:56:10.647Z,1008.0
2017-09-05T12:57:12.037Z,1007.9
2017-09-05T12:58:13.430Z,1007.9
2017-09-05T12:59:14.829Z,1007.9
2017-09-05T13:00:16.230Z,1007.9
2017-09-05T13:01:17.618Z,1007.8
2017-09-05T13:02:19.013Z,1007.9
2017-09-05T13:03:20.406Z,1007.8
2017-09-05T13:04:21.798Z,1007.8
2017-09-05T13:05:23.193Z,1007.8